Time;durP1;ratioP1;P1;durP2;ratioP2;P2;SDS_P1;SDS_P2;PMS_P1;PMS_P2;Temp;Humidity;BMP_temperature;BMP_pressure;BME280_temperature;BME280_humidity;BME280_pressure;Samples;Min_cycle;Max_cycle;Signal;HPM_P1;HPM_P2
2023/01/14 00:02:12;;;;;;;32.55;26.15;;;3.40;99.90;;;;;;3961631;30;20119;-87
2023/01/14 00:04:32;;;;;;;29.02;25.45;;;3.50;99.90;;;;;;3945503;30;20427;-86
2023/01/14 00:06:53;;;;;;;27.42;24.42;;;3.50;99.90;;;;;;3960716;30;20081;-88
2023/01/14 00:09:14;;;;;;;25.25;22.70;;;3.50;99.90;;;;;;3949249;30;20055;-87
2023/01/14 00:11:46;;;;;;;28.17;24.52;;;3.60;99.90;;;;;;3949109;30;20123;-88
2023/01/14 00:14:05;;;;;;;27.23;24.45;;;3.60;99.90;;;;;;3965199;30;20049;-87
2023/01/14 00:16:25;;;;;;;31.08;27.85;;;3.50;99.90;;;;;;3948864;30;20108;-87
2023/01/14 00:18:45;;;;;;;31.73;25.48;;;3.30;99.90;;;;;;3947937;30;20063;-88
2023/01/14 00:21:11;;;;;;;33.38;26.95;;;3.30;99.90;;;;;;3949105;30;20093;-87
2023/01/14 00:23:33;;;;;;;32.47;26.38;;;3.20;99.90;;;;;;3957006;30;20100;-87
2023/01/14 00:25:53;;;;;;;30.17;26.88;;;3.10;99.90;;;;;;3959843;30;20086;-88
2023/01/14 00:28:16;;;;;;;39.55;30.75;;;3.20;99.90;;;;;;3948657;30;20050;-87
2023/01/14 00:30:36;;;;;;;32.90;25.92;;;3.30;99.90;;;;;;3948473;30;20098;-88
2023/01/14 00:32:55;;;;;;;33.30;27.52;;;3.30;99.90;;;;;;3950641;30;20054;-87
2023/01/14 00:35:15;;;;;;;28.52;24.98;;;3.30;99.90;;;;;;3948179;30;20093;-87
2023/01/14 00:37:35;;;;;;;32.80;25.48;;;3.40;99.90;;;;;;3949953;30;20093;-88
2023/01/14 00:39:55;;;;;;;37.40;27.75;;;3.20;99.90;;;;;;3949455;30;20078;-88
2023/01/14 00:42:14;;;;;;;30.60;24.48;;;3.20;99.90;;;;;;3947856;30;20093;-87
2023/01/14 00:44:34;;;;;;;26.08;21.83;;;3.10;99.90;;;;;;3948174;30;20435;-88
2023/01/14 00:46:54;;;;;;;19.35;17.50;;;3.20;99.90;;;;;;3948720;30;20058;-88
2023/01/14 00:49:18;;;;;;;27.35;24.02;;;3.30;99.90;;;;;;3948620;30;20089;-88
2023/01/14 00:51:38;;;;;;;19.13;17.55;;;3.10;99.90;;;;;;3960880;30;20405;-87
2023/01/14 00:54:00;;;;;;;25.73;23.10;;;3.10;99.90;;;;;;3960812;30;20277;-87
2023/01/14 00:56:21;;;;;;;25.13;22.58;;;3.10;99.90;;;;;;3948370;30;20409;-88
2023/01/14 00:58:42;;;;;;;23.63;21.38;;;3.00;99.90;;;;;;3948679;30;20071;-88
2023/01/14 01:01:02;;;;;;;21.65;19.33;;;2.90;99.90;;;;;;3947899;30;20058;-87
2023/01/14 01:03:23;;;;;;;23.25;18.38;;;3.00;99.90;;;;;;3948270;30;20055;-87
2023/01/14 01:05:42;;;;;;;29.65;24.55;;;3.00;99.90;;;;;;3947311;30;20075;-88
2023/01/14 01:08:07;;;;;;;25.40;22.05;;;2.90;99.90;;;;;;3948288;30;20391;-87
2023/01/14 01:10:27;;;;;;;17.65;16.33;;;2.90;99.90;;;;;;3948389;30;20062;-88
2023/01/14 01:12:46;;;;;;;22.23;19.92;;;3.00;99.90;;;;;;3948120;30;20074;-87
2023/01/14 01:15:07;;;;;;;25.80;22.58;;;2.90;99.90;;;;;;3948383;30;20098;-88
2023/01/14 01:17:28;;;;;;;26.85;22.73;;;2.90;99.90;;;;;;3949346;30;20073;-87
2023/01/14 01:19:50;;;;;;;25.90;23.27;;;2.80;99.90;;;;;;3948318;30;20071;-87
2023/01/14 01:22:10;;;;;;;24.38;20.55;;;2.70;99.90;;;;;;3947851;30;20074;-88
2023/01/14 01:24:30;;;;;;;19.20;17.30;;;2.70;99.90;;;;;;3959823;30;20049;-87
2023/01/14 01:26:50;;;;;;;25.50;21.65;;;2.70;99.90;;;;;;3959245;30;20046;-87
2023/01/14 01:29:09;;;;;;;22.80;20.40;;;2.60;99.90;;;;;;3960051;30;20050;-87
2023/01/14 01:31:29;;;;;;;22.73;20.33;;;2.50;99.90;;;;;;3948627;30;20055;-87
2023/01/14 01:33:50;;;;;;;21.92;19.73;;;2.40;99.90;;;;;;3947470;30;20171;-87
2023/01/14 01:36:16;;;;;;;19.58;17.17;;;2.20;99.90;;;;;;3947217;30;20067;-88
2023/01/14 01:38:36;;;;;;;20.55;18.75;;;2.30;99.90;;;;;;3946710;30;20116;-87
2023/01/14 01:40:57;;;;;;;17.27;16.08;;;2.30;99.90;;;;;;3947273;30;20063;-88
2023/01/14 01:43:18;;;;;;;19.10;17.00;;;2.30;99.90;;;;;;3947780;30;20051;-87
2023/01/14 01:45:46;;;;;;;17.92;16.35;;;2.30;99.90;;;;;;3958707;30;20115;-87
2023/01/14 01:48:32;;;;;;;26.15;19.05;;;2.40;99.90;;;;;;3948069;30;20054;-87
2023/01/14 01:51:28;;;;;;;15.65;14.25;;;2.40;99.90;;;;;;3947648;30;20336;-87
2023/01/14 01:53:52;;;;;;;15.35;13.30;;;2.50;99.90;;;;;;3964621;30;20075;-88
2023/01/14 01:56:15;;;;;;;16.92;15.23;;;2.50;99.90;;;;;;3955410;30;20058;-87
2023/01/14 01:58:36;;;;;;;17.73;16.17;;;2.50;99.90;;;;;;3964065;30;20209;-87
2023/01/14 02:00:57;;;;;;;18.73;17.02;;;2.40;99.90;;;;;;3964968;30;20078;-87
2023/01/14 02:03:27;;;;;;;17.85;14.98;;;2.30;99.90;;;;;;3948273;30;20090;-87
2023/01/14 02:05:51;;;;;;;24.52;21.00;;;2.40;99.90;;;;;;3949761;30;20121;-87
2023/01/14 02:08:11;;;;;;;19.25;17.23;;;2.30;99.90;;;;;;3950495;30;20059;-87
2023/01/14 02:10:54;;;;;;;20.83;17.92;;;2.20;99.90;;;;;;3962250;30;20127;-87
2023/01/14 02:13:39;;;;;;;19.58;17.10;;;2.20;99.90;;;;;;3965890;30;20153;-87
2023/01/14 02:16:11;;;;;;;18.20;16.23;;;2.20;99.90;;;;;;3963511;29;20266;-87
2023/01/14 02:18:34;;;;;;;23.10;20.70;;;2.30;99.90;;;;;;3967106;29;20271;-87
2023/01/14 02:21:03;;;;;;;16.88;15.55;;;2.10;99.90;;;;;;3952628;30;20080;-87
2023/01/14 02:23:51;;;;;;;21.85;19.55;;;2.20;99.90;;;;;;3959343;30;20374;-87
2023/01/14 02:26:36;;;;;;;41.10;30.08;;;2.30;99.90;;;;;;3964921;29;20177;-87
2023/01/14 02:29:17;;;;;;;38.38;27.75;;;2.10;99.90;;;;;;3966179;29;20258;-87
2023/01/14 02:31:40;;;;;;;22.85;20.35;;;2.00;99.90;;;;;;3947685;30;20097;-87
2023/01/14 02:34:06;;;;;;;18.77;17.08;;;1.90;99.90;;;;;;3957759;30;20045;-86
2023/01/14 02:36:48;;;;;;;42.53;19.33;;;1.80;99.90;;;;;;3947859;30;20397;-87
2023/01/14 02:39:19;;;;;;;27.95;18.20;;;1.70;99.90;;;;;;3958870;30;20116;-88
2023/01/14 02:44:37;;;;;;;104.30;20.97;;;1.50;99.90;;;;;;3948612;30;20351;-87
2023/01/14 02:46:57;;;;;;;89.15;18.45;;;1.40;99.90;;;;;;3947010;30;20524;-87
2023/01/14 02:49:23;;;;;;;89.70;18.05;;;1.30;99.90;;;;;;3960065;30;20238;-87
2023/01/14 02:51:46;;;;;;;137.65;22.50;;;1.40;99.90;;;;;;3948593;30;20406;-87
2023/01/14 02:54:05;;;;;;;65.20;18.85;;;1.40;99.90;;;;;;3951153;30;20074;-87
2023/01/14 02:56:26;;;;;;;54.25;17.55;;;1.50;99.90;;;;;;3945663;30;20432;-87
2023/01/14 02:59:20;;;;;;;92.13;19.35;;;1.50;99.90;;;;;;3958641;30;20043;-87
2023/01/14 03:02:00;;;;;;;72.97;16.95;;;1.50;99.90;;;;;;3946354;30;20064;-87
2023/01/14 03:04:35;;;;;;;53.95;19.45;;;1.60;99.90;;;;;;3959007;30;20102;-87
2023/01/14 03:07:20;;;;;;;94.93;20.38;;;1.60;99.90;;;;;;3947476;30;20055;-87
2023/01/14 03:09:52;;;;;;;87.93;20.30;;;1.70;99.90;;;;;;3946146;30;20101;-87
2023/01/14 03:12:35;;;;;;;91.60;21.05;;;1.70;99.90;;;;;;3947192;30;20416;-86
2023/01/14 03:15:19;;;;;;;28.08;18.55;;;1.60;99.90;;;;;;3959608;30;20115;-87
2023/01/14 03:17:40;;;;;;;18.63;16.73;;;1.60;99.90;;;;;;3948037;30;20086;-87
2023/01/14 03:20:07;;;;;;;57.47;20.17;;;1.70;99.90;;;;;;3948997;30;20350;-87
2023/01/14 03:22:29;;;;;;;82.90;20.02;;;1.60;99.90;;;;;;3961190;30;20089;-87
2023/01/14 03:24:51;;;;;;;79.05;18.77;;;1.60;99.90;;;;;;3950027;30;20133;-87
2023/01/14 03:27:19;;;;;;;36.58;18.80;;;1.50;99.90;;;;;;3951419;30;20052;-87
2023/01/14 03:29:43;;;;;;;54.05;18.17;;;1.60;99.90;;;;;;3948503;30;20051;-87
2023/01/14 03:32:14;;;;;;;34.90;17.13;;;1.60;99.90;;;;;;3948447;30;20162;-87
2023/01/14 03:34:50;;;;;;;84.28;18.75;;;1.60;99.90;;;;;;3960589;30;20101;-86
2023/01/14 03:37:13;;;;;;;89.93;21.40;;;1.50;99.90;;;;;;3949368;30;20100;-87
2023/01/14 03:39:32;;;;;;;92.18;23.98;;;1.50;99.90;;;;;;3961126;30;20098;-86
2023/01/14 03:45:00;;;;;;;111.10;25.50;;;1.60;99.90;;;;;;3950093;30;20090;-87
2023/01/14 03:47:21;;;;;;;143.50;26.98;;;1.70;99.90;;;;;;3949013;30;20042;-87
2023/01/14 03:49:41;;;;;;;21.90;19.27;;;1.80;99.90;;;;;;3949508;30;20052;-87
2023/01/14 03:52:10;;;;;;;54.13;18.75;;;1.90;99.90;;;;;;3947929;30;20051;-87
2023/01/14 03:54:54;;;;;;;20.17;18.33;;;2.00;99.90;;;;;;3958890;30;20270;-87
2023/01/14 03:57:23;;;;;;;74.15;24.20;;;2.10;99.90;;;;;;3959240;30;20390;-87
2023/01/14 03:59:49;;;;;;;96.72;24.50;;;2.10;99.90;;;;;;3949136;30;20106;-87
2023/01/14 04:02:10;;;;;;;96.22;23.52;;;2.00;99.90;;;;;;3951538;30;20377;-87
2023/01/14 04:04:32;;;;;;;200.82;27.95;;;2.10;99.90;;;;;;3949817;30;20168;-87
2023/01/14 04:06:52;;;;;;;114.68;21.90;;;2.10;99.90;;;;;;3949234;30;20101;-87
2023/01/14 04:09:12;;;;;;;28.15;17.77;;;1.90;99.90;;;;;;3949441;30;20074;-87
2023/01/14 04:11:32;;;;;;;26.52;18.85;;;1.90;99.90;;;;;;3948546;30;20097;-87
2023/01/14 04:16:30;;;;;;;198.77;27.92;;;2.00;99.90;;;;;;3948732;30;20239;-87
2023/01/14 04:18:51;;;;;;;126.20;23.48;;;1.80;99.90;;;;;;3960864;30;20450;-87
2023/01/14 04:21:10;;;;;;;56.28;18.80;;;1.80;99.90;;;;;;3947568;30;20059;-87
2023/01/14 04:23:30;;;;;;;77.78;17.75;;;1.70;99.90;;;;;;3949446;30;20051;-87
2023/01/14 04:25:58;;;;;;;28.23;16.73;;;1.70;99.90;;;;;;3961096;30;20098;-87
2023/01/14 04:28:18;;;;;;;92.55;20.80;;;1.70;99.90;;;;;;3947849;30;20127;-87
2023/01/14 04:30:40;;;;;;;20.15;16.98;;;1.70;99.90;;;;;;3948195;30;20373;-87
2023/01/14 04:33:00;;;;;;;108.78;21.55;;;1.60;99.90;;;;;;3948825;30;20043;-87
2023/01/14 04:35:19;;;;;;;107.25;20.88;;;1.70;99.90;;;;;;3965736;30;20070;-87
2023/01/14 04:37:40;;;;;;;72.40;18.80;;;1.70;99.90;;;;;;3949020;30;20069;-87
2023/01/14 04:40:00;;;;;;;114.72;19.88;;;1.70;99.90;;;;;;3960461;30;20135;-87
2023/01/14 04:42:26;;;;;;;94.90;20.00;;;1.70;99.90;;;;;;3948542;30;20051;-87
2023/01/14 04:44:47;;;;;;;97.07;20.77;;;1.60;99.90;;;;;;3948684;30;20117;-87
2023/01/14 04:47:07;;;;;;;42.83;20.45;;;1.60;99.90;;;;;;3964371;30;20055;-87
2023/01/14 04:49:37;;;;;;;69.55;20.65;;;1.60;99.90;;;;;;3949828;30;20062;-87
2023/01/14 04:51:57;;;;;;;101.53;20.40;;;1.70;99.90;;;;;;3946900;30;20374;-87
2023/01/14 04:54:17;;;;;;;106.13;21.13;;;1.70;99.90;;;;;;3948679;30;20042;-87
2023/01/14 04:56:37;;;;;;;96.45;18.42;;;1.70;99.90;;;;;;3948634;30;20110;-87
2023/01/14 04:59:02;;;;;;;63.38;19.88;;;1.70;99.90;;;;;;3947202;30;20105;-87
2023/01/14 05:01:22;;;;;;;75.68;19.05;;;1.70;99.90;;;;;;3960571;30;20058;-87
2023/01/14 05:03:42;;;;;;;76.50;20.92;;;1.70;99.90;;;;;;3947043;30;20084;-87
2023/01/14 05:06:01;;;;;;;74.20;19.00;;;1.70;99.90;;;;;;3947389;30;20158;-87
2023/01/14 05:08:22;;;;;;;79.38;20.63;;;1.70;99.90;;;;;;3959338;30;20119;-87
2023/01/14 05:10:42;;;;;;;57.22;18.58;;;1.60;99.90;;;;;;3949391;30;20086;-87
2023/01/14 05:13:02;;;;;;;44.10;18.15;;;1.70;99.90;;;;;;3947864;30;20146;-87
2023/01/14 05:15:25;;;;;;;43.70;16.67;;;1.70;99.90;;;;;;3960046;30;20085;-87
2023/01/14 05:17:47;;;;;;;66.57;19.23;;;1.70;99.90;;;;;;3947840;30;20050;-87
2023/01/14 05:20:08;;;;;;;67.80;19.67;;;1.70;99.90;;;;;;3947957;30;20075;-87
2023/01/14 05:22:28;;;;;;;98.70;22.25;;;1.70;99.90;;;;;;3948569;30;20082;-87
2023/01/14 05:24:48;;;;;;;74.95;19.55;;;1.70;99.90;;;;;;3947655;30;20112;-87
2023/01/14 05:27:08;;;;;;;170.55;23.95;;;1.70;99.90;;;;;;3948611;30;20062;-87
2023/01/14 05:29:28;;;;;;;75.63;21.52;;;1.70;99.90;;;;;;3947245;30;20043;-87
2023/01/14 05:31:48;;;;;;;40.28;19.02;;;1.70;99.90;;;;;;3948449;30;20058;-88
2023/01/14 05:34:11;;;;;;;50.88;19.65;;;1.70;99.90;;;;;;3948720;30;20043;-88
2023/01/14 05:36:30;;;;;;;56.88;22.90;;;1.80;99.90;;;;;;3960176;30;20059;-88
2023/01/14 05:38:50;;;;;;;67.75;21.63;;;1.80;99.90;;;;;;3947336;30;20081;-88
2023/01/14 05:41:12;;;;;;;50.10;20.80;;;1.80;99.90;;;;;;3959023;30;20267;-88
2023/01/14 05:46:16;;;;;;;52.47;21.02;;;1.80;99.90;;;;;;3948283;30;20378;-88
2023/01/14 05:48:36;;;;;;;68.10;20.45;;;1.90;99.90;;;;;;3948002;30;20117;-87
2023/01/14 05:50:58;;;;;;;57.45;19.42;;;2.00;99.90;;;;;;3947230;30;20090;-88
2023/01/14 05:53:19;;;;;;;47.60;19.52;;;2.00;99.90;;;;;;3959493;30;20402;-88
2023/01/14 05:55:38;;;;;;;38.05;18.13;;;2.10;99.90;;;;;;3947702;30;20079;-88
2023/01/14 05:58:03;;;;;;;112.68;22.38;;;2.10;99.90;;;;;;3949349;30;20055;-88
2023/01/14 06:08:18;;;;;;;123.88;23.90;;;2.10;99.90;;;;;;3947596;30;20042;-87
2023/01/14 06:10:37;;;;;;;68.75;21.30;;;2.00;99.90;;;;;;3948886;30;20062;-88
2023/01/14 06:13:10;;;;;;;239.18;27.77;;;2.00;99.90;;;;;;3949090;30;20094;-88
2023/01/14 06:15:36;;;;;;;213.20;29.45;;;1.90;99.90;;;;;;3947400;30;20050;-88
2023/01/14 06:17:58;;;;;;;33.20;19.42;;;1.90;99.90;;;;;;3947429;30;20047;-87
2023/01/14 06:20:18;;;;;;;40.55;20.85;;;1.90;99.90;;;;;;3947254;30;20289;-88
2023/01/14 06:22:44;;;;;;;98.13;21.70;;;2.00;99.90;;;;;;3947679;30;20055;-87
2023/01/14 06:25:05;;;;;;;47.45;20.02;;;2.00;99.90;;;;;;3946409;30;20389;-87
2023/01/14 06:27:27;;;;;;;;;;;2.00;99.90;;;;;;3959816;30;20117;-89
2023/01/14 06:29:50;;;;;;;47.88;19.98;;;2.10;99.90;;;;;;3953176;30;20125;-88
2023/01/14 06:32:12;;;;;;;80.75;23.00;;;2.10;99.90;;;;;;3947669;30;20054;-88
2023/01/14 06:34:48;;;;;;;54.42;19.33;;;2.10;99.90;;;;;;3958404;30;20144;-87
2023/01/14 06:37:07;;;;;;;88.43;20.92;;;2.00;99.90;;;;;;3960830;30;20092;-88
2023/01/14 06:39:28;;;;;;;64.97;21.80;;;2.00;99.90;;;;;;3947472;30;20166;-88
2023/01/14 06:41:59;;;;;;;92.28;26.50;;;2.10;99.90;;;;;;3957668;30;20109;-88
2023/01/14 06:44:18;;;;;;;67.93;29.30;;;2.10;99.90;;;;;;3946760;30;20065;-88
2023/01/14 06:46:43;;;;;;;101.93;31.20;;;2.10;99.90;;;;;;3957807;30;20062;-88
2023/01/14 06:49:05;;;;;;;125.05;25.10;;;2.10;99.90;;;;;;3945736;30;20405;-87
2023/01/14 06:51:31;;;;;;;43.00;21.92;;;2.10;99.90;;;;;;3957583;30;20373;-88
2023/01/14 06:54:17;;;;;;;24.25;21.70;;;2.10;99.90;;;;;;3959627;30;20066;-88
2023/01/14 06:56:46;;;;;;;46.50;20.52;;;2.20;99.90;;;;;;3950134;30;20059;-88
2023/01/14 06:59:14;;;;;;;51.78;19.85;;;2.30;99.90;;;;;;3951195;30;20308;-87
2023/01/14 07:01:35;;;;;;;86.72;22.50;;;2.40;99.90;;;;;;3949441;30;20070;-88
2023/01/14 07:03:55;;;;;;;26.63;19.98;;;2.30;99.90;;;;;;3950026;30;20051;-88
2023/01/14 07:06:22;;;;;;;54.00;21.63;;;2.30;99.90;;;;;;3946286;30;20059;-88
2023/01/14 07:08:46;;;;;;;37.05;20.77;;;2.40;99.90;;;;;;3951475;30;20059;-87
2023/01/14 07:11:51;;;;;;;79.07;32.60;;;2.40;99.90;;;;;;3950767;30;20550;-87
2023/01/14 07:14:13;;;;;;;66.30;21.38;;;2.40;99.90;;;;;;3946736;30;20093;-89
2023/01/14 07:16:54;;;;;;;69.80;24.30;;;2.50;99.90;;;;;;3947166;30;20248;-88
2023/01/14 07:19:17;;;;;;;86.20;25.85;;;2.50;99.90;;;;;;3949852;30;20043;-88
2023/01/14 07:21:42;;;;;;;210.05;27.73;;;2.60;99.90;;;;;;3949944;30;20417;-88
2023/01/14 07:24:07;;;;;;;238.43;32.38;;;2.60;99.90;;;;;;3961210;30;20088;-88
2023/01/14 07:26:29;;;;;;;176.40;36.63;;;2.60;99.90;;;;;;3948596;30;20254;-88
2023/01/14 07:28:51;;;;;;;145.82;38.00;;;2.50;99.90;;;;;;3953014;30;20051;-88
2023/01/14 07:31:10;;;;;;;82.88;41.33;;;2.50;99.90;;;;;;3950367;30;20063;-88
2023/01/14 07:33:30;;;;;;;236.98;30.42;;;2.50;99.90;;;;;;3949688;30;20059;-88
2023/01/14 07:35:52;;;;;;;49.47;20.77;;;2.60;99.90;;;;;;3950439;30;20251;-88
2023/01/14 07:38:11;;;;;;;48.92;19.95;;;2.60;99.90;;;;;;3947094;30;20047;-86
2023/01/14 07:40:32;;;;;;;49.55;19.60;;;2.60;99.90;;;;;;3947982;30;20047;-88
2023/01/14 07:42:59;;;;;;;29.08;20.30;;;2.60;99.90;;;;;;3949403;30;20055;-87
2023/01/14 07:45:19;;;;;;;73.90;20.98;;;2.70;99.90;;;;;;3949324;30;20066;-87
2023/01/14 07:47:39;;;;;;;64.20;19.75;;;2.80;99.90;;;;;;3948017;30;20054;-87
2023/01/14 07:49:59;;;;;;;32.50;20.63;;;2.80;99.90;;;;;;3960571;30;20077;-82
2023/01/14 07:52:19;;;;;;;27.85;22.45;;;2.80;99.90;;;;;;3948350;30;20097;-82
2023/01/14 07:54:41;;;;;;;41.03;21.05;;;3.00;99.90;;;;;;3949225;30;20052;-82
2023/01/14 07:57:01;;;;;;;35.00;21.58;;;3.00;99.90;;;;;;3948678;30;20062;-82
2023/01/14 07:59:21;;;;;;;65.28;13.52;;;3.00;99.90;;;;;;3961613;30;20227;-82
2023/01/14 08:01:41;;;;;;;58.90;12.85;;;2.90;99.90;;;;;;3947973;30;20062;-82
2023/01/14 08:04:02;;;;;;;59.28;15.88;;;2.90;99.90;;;;;;3950428;30;20375;-83
2023/01/14 08:06:22;;;;;;;30.95;13.45;;;3.00;99.90;;;;;;3960319;30;20073;-82
2023/01/14 08:08:42;;;;;;;50.95;14.60;;;3.00;99.90;;;;;;3961262;30;20288;-82
2023/01/14 08:11:02;;;;;;;53.75;13.23;;;3.10;99.90;;;;;;3960680;30;20104;-83
2023/01/14 08:13:23;;;;;;;69.55;14.77;;;3.10;99.90;;;;;;3949167;30;20382;-83
2023/01/14 08:15:44;;;;;;;66.82;16.90;;;3.10;99.90;;;;;;3949148;30;20097;-83
2023/01/14 08:18:04;;;;;;;84.13;23.92;;;3.10;99.90;;;;;;3948864;30;20050;-83
2023/01/14 08:20:26;;;;;;;215.13;30.02;;;3.10;99.90;;;;;;3960716;30;20165;-83
2023/01/14 08:22:46;;;;;;;57.17;25.42;;;3.20;99.90;;;;;;3952972;30;20115;-83
2023/01/14 08:25:06;;;;;;;35.40;17.42;;;3.20;99.90;;;;;;3949646;30;20062;-83
2023/01/14 08:27:27;;;;;;;104.20;18.70;;;3.20;99.90;;;;;;3962649;30;20138;-83
2023/01/14 08:29:47;;;;;;;54.28;17.23;;;3.30;99.90;;;;;;3958939;30;20047;-83
2023/01/14 08:32:06;;;;;;;63.00;21.23;;;3.40;99.90;;;;;;3948310;30;20123;-83
2023/01/14 08:34:27;;;;;;;145.07;24.75;;;3.40;99.90;;;;;;3948022;30;20121;-84
2023/01/14 08:36:48;;;;;;;58.53;17.00;;;3.50;99.90;;;;;;3960721;30;20096;-84
2023/01/14 08:39:09;;;;;;;116.28;18.73;;;3.50;99.90;;;;;;3949071;30;20051;-83
2023/01/14 08:41:29;;;;;;;72.20;18.80;;;3.40;99.90;;;;;;3960800;30;20110;-83
2023/01/14 08:43:51;;;;;;;110.07;26.00;;;3.40;99.90;;;;;;3949539;30;20071;-83
2023/01/14 08:46:11;;;;;;;108.23;51.40;;;3.50;99.90;;;;;;3959592;30;20058;-83
2023/01/14 08:48:32;;;;;;;27.98;22.13;;;3.50;99.90;;;;;;3949756;30;20054;-83
2023/01/14 08:50:52;;;;;;;148.00;48.90;;;3.50;99.90;;;;;;3948926;30;20101;-84
2023/01/14 08:53:12;;;;;;;118.07;26.05;;;3.50;99.90;;;;;;3960641;30;20046;-83
2023/01/14 08:55:32;;;;;;;50.65;16.58;;;3.60;99.90;;;;;;3948227;30;20066;-83
2023/01/14 08:57:52;;;;;;;127.07;21.85;;;3.50;99.90;;;;;;3949058;30;20055;-83
2023/01/14 09:00:12;;;;;;;106.53;19.42;;;3.60;99.90;;;;;;3948758;30;20089;-83
2023/01/14 09:02:32;;;;;;;182.68;24.92;;;3.60;99.90;;;;;;3947556;30;20054;-84
2023/01/14 09:04:52;;;;;;;185.80;20.00;;;3.60;99.90;;;;;;3946627;30;20120;-83
2023/01/14 09:17:52;;;;;;;127.03;19.00;;;3.70;99.90;;;;;;3946289;30;20046;-84
2023/01/14 09:20:15;;;;;;;103.97;17.38;;;3.80;99.90;;;;;;3947668;30;20416;-83
2023/01/14 09:22:35;;;;;;;165.35;21.48;;;3.70;99.90;;;;;;3947632;30;20106;-83
2023/01/14 09:24:56;;;;;;;119.47;17.73;;;3.70;99.90;;;;;;3949928;30;20050;-83
2023/01/14 09:27:16;;;;;;;244.60;22.17;;;3.70;99.90;;;;;;3959427;30;20419;-83
2023/01/14 09:29:36;;;;;;;84.72;16.13;;;3.70;99.90;;;;;;3947748;30;20046;-83
2023/01/14 09:31:56;;;;;;;225.73;21.65;;;3.70;99.90;;;;;;3948171;30;20054;-83
2023/01/14 09:34:16;;;;;;;140.82;19.85;;;3.80;99.90;;;;;;3959960;30;20046;-83
2023/01/14 09:36:36;;;;;;;141.65;19.95;;;3.80;99.90;;;;;;3948960;30;20054;-83
2023/01/14 09:38:57;;;;;;;134.00;16.00;;;3.90;99.90;;;;;;3947389;30;20397;-83
2023/01/14 09:41:40;;;;;;;202.23;19.02;;;3.80;99.90;;;;;;3947394;30;20254;-84
2023/01/14 09:44:06;;;;;;;171.75;19.27;;;3.70;99.90;;;;;;3962524;30;20050;-84
2023/01/14 09:46:27;;;;;;;140.55;16.00;;;3.80;99.90;;;;;;3959985;30;20262;-84
2023/01/14 09:48:48;;;;;;;155.27;23.75;;;3.90;99.90;;;;;;3947672;30;20077;-83
2023/01/14 09:51:30;;;;;;;132.27;42.55;;;3.80;99.90;;;;;;3949168;30;20079;-84
2023/01/14 09:54:18;;;;;;;82.68;24.08;;;3.80;99.90;;;;;;3946810;30;20063;-84
2023/01/14 09:57:03;;;;;;;88.80;32.45;;;3.80;99.90;;;;;;3947641;30;20113;-84
2023/01/14 09:59:23;;;;;;;142.57;29.92;;;4.00;99.90;;;;;;3947153;30;20103;-84
2023/01/14 10:01:53;;;;;;;81.53;21.90;;;4.00;99.90;;;;;;3948013;30;20111;-84
2023/01/14 10:04:39;;;;;;;53.47;23.13;;;4.20;99.90;;;;;;3947347;30;20258;-84
2023/01/14 10:07:02;;;;;;;205.38;31.67;;;4.20;99.90;;;;;;3948501;30;20055;-81
2023/01/14 10:09:27;;;;;;;93.38;29.63;;;4.30;99.90;;;;;;3947569;30;20485;-81
2023/01/14 10:11:48;;;;;;;74.95;24.02;;;4.40;99.90;;;;;;3948880;30;20090;-81
2023/01/14 10:14:20;;;;;;;106.80;25.02;;;4.30;99.90;;;;;;3948334;30;20102;-81
2023/01/14 10:16:44;;;;;;;76.00;24.40;;;4.10;99.90;;;;;;3947442;30;20086;-81
2023/01/14 10:19:38;;;;;;;435.80;34.60;;;4.20;99.90;;;;;;3947549;30;20100;-81
2023/01/14 10:22:03;;;;;;;;;;;4.20;99.90;;;;;;3946708;30;20123;-81
2023/01/14 10:24:22;;;;;;;129.65;22.42;;;4.30;99.90;;;;;;3946002;30;19944;-81
2023/01/14 10:26:45;;;;;;;94.30;21.27;;;4.40;99.90;;;;;;3947856;30;20097;-81
2023/01/14 10:29:14;;;;;;;91.57;36.90;;;4.50;99.90;;;;;;3961187;30;20296;-81
2023/01/14 10:31:37;;;;;;;241.63;33.83;;;4.60;99.90;;;;;;3944900;30;20051;-81
2023/01/14 10:33:58;;;;;;;138.35;28.08;;;4.60;99.90;;;;;;3947594;30;20051;-81
2023/01/14 10:36:22;;;;;;;309.77;46.20;;;4.50;99.90;;;;;;3947333;30;20086;-81
2023/01/14 10:38:42;;;;;;;110.38;26.55;;;4.50;99.90;;;;;;3945971;30;20411;-81
2023/01/14 10:41:06;;;;;;;197.45;28.70;;;4.60;99.90;;;;;;3960943;30;20119;-82
2023/01/14 10:43:45;;;;;;;36.97;24.13;;;4.60;99.90;;;;;;3948434;30;20055;-82
2023/01/14 10:46:06;;;;;;;92.53;29.48;;;4.70;99.90;;;;;;3959713;30;20058;-82
2023/01/14 10:48:33;;;;;;;50.92;33.72;;;4.90;99.90;;;;;;3948071;30;20056;-82
2023/01/14 10:50:52;;;;;;;70.25;30.00;;;5.10;99.90;;;;;;3947432;30;20231;-82
2023/01/14 10:53:22;;;;;;;54.80;32.13;;;5.20;99.90;;;;;;3945354;30;20054;-82
2023/01/14 10:55:55;;;;;;;41.35;27.52;;;5.30;99.90;;;;;;3949872;30;20375;-82
2023/01/14 10:58:21;;;;;;;35.58;24.30;;;5.50;99.90;;;;;;3947089;30;20077;-82
2023/01/14 11:00:44;;;;;;;77.72;35.05;;;5.60;99.90;;;;;;3946988;30;20055;-82
2023/01/14 11:03:09;;;;;;;;;;;5.60;99.90;;;;;;3961349;30;20051;-82
2023/01/14 11:05:35;;;;;;;72.90;37.20;;;5.50;99.90;;;;;;3946456;30;19940;-82
2023/01/14 11:07:59;;;;;;;60.15;25.17;;;5.50;99.90;;;;;;3946363;30;20055;-82
2023/01/14 11:10:23;;;;;;;35.88;22.33;;;5.50;99.90;;;;;;3944743;30;20119;-82
2023/01/14 11:12:43;;;;;;;23.63;19.15;;;5.70;99.90;;;;;;3945109;30;20051;-82
2023/01/14 11:15:03;;;;;;;24.60;18.20;;;5.70;99.90;;;;;;3948778;30;20059;-82
2023/01/14 11:17:27;;;;;;;24.38;21.73;;;5.80;99.90;;;;;;3947743;30;20059;-82
2023/01/14 11:19:47;;;;;;;22.65;16.98;;;5.90;99.90;;;;;;3946232;30;20051;-82
2023/01/14 11:22:09;;;;;;;48.95;19.27;;;5.90;99.90;;;;;;3941428;30;20066;-81
2023/01/14 11:24:37;;;;;;;27.20;18.20;;;6.10;99.90;;;;;;3945143;30;20050;-81
2023/01/14 11:27:21;;;;;;;20.13;18.20;;;6.20;99.90;;;;;;3947070;30;20055;-81
2023/01/14 11:29:45;;;;;;;;;;;6.30;99.90;;;;;;3947882;30;20395;-81
2023/01/14 11:32:12;;;;;;;;;;;6.50;99.90;;;;;;3949637;30;19955;-81
2023/01/14 11:34:48;;;;;;;16.60;14.35;;;6.60;99.90;;;;;;3950228;30;20180;-81
2023/01/14 11:37:17;;;;;;;15.45;13.95;;;6.60;99.90;;;;;;3948339;30;20059;-81
2023/01/14 11:39:39;;;;;;;15.27;14.18;;;6.90;99.90;;;;;;3948203;30;20063;-81
2023/01/14 11:42:02;;;;;;;18.92;13.30;;;6.90;99.90;;;;;;3948363;30;20075;-81
2023/01/14 11:44:22;;;;;;;;;;;7.00;99.90;;;;;;3961219;30;20059;-81
2023/01/14 11:46:44;;;;;;;13.77;12.63;;;7.10;99.90;;;;;;3948540;30;19971;-81
2023/01/14 11:49:17;;;;;;;16.67;15.27;;;7.30;99.90;;;;;;3961718;30;20055;-81
2023/01/14 11:51:40;;;;;;;;;;;7.40;99.90;;;;;;3949333;30;20092;-81
2023/01/14 11:54:03;;;;;;;19.25;17.35;;;7.60;99.90;;;;;;3961108;30;20318;-81
2023/01/14 11:56:26;;;;;;;;;;;7.80;99.90;;;;;;3949355;30;20062;-81
2023/01/14 11:58:46;;;;;;;17.52;16.05;;;8.00;99.90;;;;;;3948584;30;19929;-81
2023/01/14 12:01:46;;;;;;;14.95;13.85;;;8.40;99.90;;;;;;3948544;30;20071;-81
2023/01/14 12:04:16;;;;;;;20.58;17.33;;;8.20;99.90;;;;;;3949241;30;20071;-81
2023/01/14 12:06:55;;;;;;;22.38;20.08;;;8.20;99.90;;;;;;3957883;30;20266;-81
2023/01/14 12:09:26;;;;;;;22.23;19.75;;;8.40;99.90;;;;;;3949917;30;20059;-81
2023/01/14 12:12:08;;;;;;;21.55;19.30;;;8.70;99.90;;;;;;3951471;30;20101;-81
2023/01/14 12:17:39;;;;;;;19.85;17.77;;;9.10;99.90;;;;;;3937038;30;20071;-81
2023/01/14 12:20:04;;;;;;;22.23;18.42;;;9.40;99.90;;;;;;3935779;30;20055;-81
2023/01/14 12:22:32;;;;;;;22.95;20.58;;;9.60;99.90;;;;;;3941235;30;20067;-82
2023/01/14 12:25:00;;;;;;;26.10;22.65;;;9.70;99.90;;;;;;3951756;30;20061;-82
2023/01/14 12:27:43;;;;;;;25.65;22.85;;;9.80;99.90;;;;;;3948490;30;20120;-82
2023/01/14 12:30:06;;;;;;;26.40;20.90;;;10.10;99.90;;;;;;3950647;30;20046;-82
2023/01/14 12:32:27;;;;;;;23.00;20.13;;;10.20;99.90;;;;;;3947819;30;20059;-82
2023/01/14 12:34:53;;;;;;;24.08;21.00;;;10.20;99.90;;;;;;3950129;30;20060;-82
2023/01/14 12:37:24;;;;;;;23.85;20.67;;;10.20;99.90;;;;;;3950683;30;20379;-82
2023/01/14 12:45:46;;;;;;;28.48;23.85;;;10.20;99.90;;;;;;3949195;30;20101;-81
2023/01/14 12:48:06;;;;;;;23.00;20.52;;;10.50;99.90;;;;;;3950164;30;20067;-81
2023/01/14 12:50:29;;;;;;;23.45;21.02;;;10.60;99.90;;;;;;3949769;30;20059;-81
2023/01/14 12:52:52;;;;;;;24.30;21.80;;;10.80;99.90;;;;;;3947237;30;20094;-81
2023/01/14 12:55:25;;;;;;;25.42;20.90;;;10.80;99.90;;;;;;3950653;30;20134;-81
2023/01/14 12:57:50;;;;;;;23.30;20.85;;;11.10;99.90;;;;;;3949589;30;20047;-82
2023/01/14 13:00:18;;;;;;;23.80;21.30;;;11.10;99.90;;;;;;3958969;30;20354;-82
2023/01/14 13:02:46;;;;;;;26.63;23.25;;;11.20;99.90;;;;;;3947942;30;20127;-82
2023/01/14 13:05:11;;;;;;;32.67;26.90;;;11.30;99.90;;;;;;3948207;30;20070;-92